createdAt,value
2023-01-09T00:00:18.430Z,20.45
2023-01-09T00:00:52.751Z,22.50
2023-01-09T00:01:29.121Z,21.98
2023-01-09T00:02:00.835Z,21.65
2023-01-09T00:02:32.478Z,21.40
2023-01-09T00:03:04.178Z,25.40
2023-01-09T00:03:35.829Z,24.38
2023-01-09T00:04:08.381Z,23.63
2023-01-09T00:04:40.085Z,21.88
2023-01-09T00:05:12.890Z,21.90
2023-01-09T00:05:44.481Z,22.45
2023-01-09T00:06:16.109Z,23.92
2023-01-09T00:06:54.201Z,22.33
2023-01-09T00:07:25.967Z,22.48
2023-01-09T00:07:57.668Z,21.67
2023-01-09T00:08:29.223Z,21.77
2023-01-09T00:09:01.008Z,21.88
2023-01-09T00:09:32.579Z,22.45
2023-01-09T00:10:05.341Z,23.65
2023-01-09T00:10:37.018Z,23.30
2023-01-09T00:11:09.636Z,23.98
2023-01-09T00:11:41.173Z,22.00
2023-01-09T00:12:12.750Z,20.98
2023-01-09T00:12:44.359Z,23.83
2023-01-09T00:13:18.059Z,22.45
2023-01-09T00:13:49.976Z,24.55
2023-01-09T00:14:23.067Z,22.95
2023-01-09T00:14:54.638Z,23.95
2023-01-09T00:15:26.403Z,22.55
2023-01-09T00:15:59.778Z,24.65
2023-01-09T00:16:31.420Z,25.45
2023-01-09T00:17:03.161Z,23.33
2023-01-09T00:17:34.842Z,22.08
2023-01-09T00:18:06.667Z,22.13
2023-01-09T00:18:38.579Z,22.45
2023-01-09T00:19:10.483Z,21.40
2023-01-09T00:19:42.182Z,21.73
2023-01-09T00:20:14.430Z,22.55
2023-01-09T00:20:46.039Z,22.70
2023-01-09T00:21:17.639Z,22.75
2023-01-09T00:21:49.223Z,22.10
2023-01-09T00:22:20.907Z,25.48
2023-01-09T00:22:52.516Z,21.35
2023-01-09T00:23:24.119Z,23.60
2023-01-09T00:23:55.774Z,21.95
2023-01-09T00:24:27.363Z,23.15
2023-01-09T00:24:58.951Z,23.38
2023-01-09T00:25:30.549Z,27.25
2023-01-09T00:26:22.417Z,22.77
2023-01-09T00:26:54.017Z,28.63
2023-01-09T00:27:25.667Z,26.25
2023-01-09T00:27:57.295Z,28.23
2023-01-09T00:28:28.893Z,30.33
2023-01-09T00:29:00.508Z,25.75
2023-01-09T00:29:32.127Z,26.85
2023-01-09T00:30:04.282Z,24.63
2023-01-09T00:30:35.915Z,29.73
2023-01-09T00:31:08.656Z,28.50
2023-01-09T00:31:40.326Z,27.27
2023-01-09T00:32:12.321Z,26.52
2023-01-09T00:32:43.902Z,27.60
2023-01-09T00:33:15.568Z,26.38
2023-01-09T00:34:05.845Z,28.58
2023-01-09T00:34:38.804Z,25.75
2023-01-09T00:35:15.269Z,26.30
2023-01-09T00:35:46.811Z,23.70
2023-01-09T00:36:18.480Z,23.02
2023-01-09T00:36:55.086Z,23.42
2023-01-09T00:37:26.692Z,24.20
2023-01-09T00:37:58.296Z,22.42
2023-01-09T00:38:29.908Z,23.85
2023-01-09T00:39:01.505Z,23.85
2023-01-09T00:39:33.093Z,25.10
2023-01-09T00:40:05.028Z,24.15
2023-01-09T00:40:36.618Z,22.98
2023-01-09T00:41:11.796Z,24.00
2023-01-09T00:41:47.247Z,23.40
2023-01-09T00:42:25.141Z,25.40
2023-01-09T00:42:57.919Z,22.45
2023-01-09T00:43:35.544Z,23.60
2023-01-09T00:44:13.355Z,23.35
2023-01-09T00:45:09.686Z,22.27
2023-01-09T00:45:41.333Z,21.08
2023-01-09T00:46:14.936Z,21.20
2023-01-09T00:46:53.355Z,25.17
2023-01-09T00:47:30.909Z,22.33
2023-01-09T00:48:08.094Z,21.75
2023-01-09T00:48:41.927Z,22.25
2023-01-09T00:49:15.235Z,21.42
2023-01-09T00:49:47.955Z,22.85
2023-01-09T00:50:23.630Z,20.98
2023-01-09T00:50:59.336Z,23.33
2023-01-09T00:51:31.190Z,21.08
2023-01-09T00:52:05.555Z,21.10
2023-01-09T00:52:38.987Z,24.77
2023-01-09T00:53:15.659Z,20.70
2023-01-09T00:53:48.823Z,23.00
2023-01-09T00:54:20.717Z,21.30
2023-01-09T00:54:52.386Z,22.33
2023-01-09T00:55:24.418Z,20.02
2023-01-09T00:55:59.412Z,21.38
2023-01-09T00:56:31.628Z,22.27
2023-01-09T00:57:03.265Z,20.55
2023-01-09T00:57:35.084Z,20.58
2023-01-09T00:58:07.192Z,20.30
2023-01-09T00:58:38.892Z,22.00
2023-01-09T00:59:10.528Z,19.85
2023-01-09T00:59:42.820Z,21.80
2023-01-09T01:00:14.837Z,20.40
2023-01-09T01:00:46.451Z,19.48
2023-01-09T01:01:18.171Z,21.83
2023-01-09T01:01:50.000Z,22.33
2023-01-09T01:02:21.847Z,21.98
2023-01-09T01:02:53.525Z,18.42
2023-01-09T01:03:25.242Z,21.20
2023-01-09T01:03:56.924Z,22.25
2023-01-09T01:04:47.329Z,19.85
2023-01-09T01:05:37.193Z,25.48
2023-01-09T01:06:27.578Z,25.75
2023-01-09T01:07:17.388Z,26.08
2023-01-09T01:07:49.189Z,24.20
2023-01-09T01:08:20.877Z,22.08
2023-01-09T01:08:52.482Z,22.25
2023-01-09T01:09:24.083Z,27.95
2023-01-09T01:09:55.675Z,26.17
2023-01-09T01:10:27.481Z,23.70
2023-01-09T01:10:59.086Z,22.85
2023-01-09T01:11:32.601Z,23.70
2023-01-09T01:12:07.395Z,21.30
2023-01-09T01:12:40.152Z,22.50
2023-01-09T01:13:12.852Z,23.52
2023-01-09T01:13:44.434Z,21.30
2023-01-09T01:14:15.982Z,21.98
2023-01-09T01:14:47.603Z,21.23
2023-01-09T01:15:20.317Z,21.05
2023-01-09T01:15:52.035Z,19.95
2023-01-09T01:16:23.638Z,19.45
2023-01-09T01:16:55.348Z,19.80
2023-01-09T01:17:26.953Z,19.98
2023-01-09T01:17:59.443Z,18.63
2023-01-09T01:18:31.210Z,20.10
2023-01-09T01:19:02.809Z,20.85
2023-01-09T01:19:35.717Z,19.52
2023-01-09T01:20:11.205Z,20.75
2023-01-09T01:20:44.761Z,19.75
2023-01-09T01:21:17.185Z,18.42
2023-01-09T01:21:48.840Z,19.63
2023-01-09T01:22:20.473Z,18.38
2023-01-09T01:22:52.046Z,18.65
2023-01-09T01:23:23.617Z,20.23
2023-01-09T01:23:55.170Z,18.67
2023-01-09T01:24:26.728Z,19.42
2023-01-09T01:24:58.353Z,19.02
2023-01-09T01:25:29.947Z,18.95
2023-01-09T01:26:13.153Z,20.77
2023-01-09T01:26:44.737Z,19.40
2023-01-09T01:27:16.311Z,20.05
2023-01-09T01:27:48.003Z,18.75
2023-01-09T01:28:19.601Z,19.30
2023-01-09T01:28:51.252Z,19.58
2023-01-09T01:29:22.796Z,18.27
2023-01-09T01:29:54.447Z,16.35
2023-01-09T01:30:27.505Z,17.75
2023-01-09T01:30:59.293Z,18.20
2023-01-09T01:31:30.909Z,18.83
2023-01-09T01:32:02.646Z,18.85
2023-01-09T01:32:34.437Z,17.38
2023-01-09T01:33:06.529Z,19.63
2023-01-09T01:33:38.133Z,18.10
2023-01-09T01:34:09.726Z,19.25
2023-01-09T01:34:41.346Z,17.40
2023-01-09T01:35:13.376Z,17.55
2023-01-09T01:35:44.942Z,18.35
2023-01-09T01:36:17.631Z,17.17
2023-01-09T01:36:49.292Z,19.35
2023-01-09T01:37:22.865Z,17.00
2023-01-09T01:37:54.414Z,18.80
2023-01-09T01:38:26.009Z,17.00
2023-01-09T01:38:57.726Z,18.50
2023-01-09T01:39:29.300Z,16.83
2023-01-09T01:40:00.897Z,17.30
2023-01-09T01:40:32.534Z,18.35
2023-01-09T01:41:05.102Z,18.15
2023-01-09T01:41:37.494Z,19.42
2023-01-09T01:42:15.379Z,17.23
2023-01-09T01:42:51.876Z,17.73
2023-01-09T01:43:23.681Z,17.95
2023-01-09T01:43:55.264Z,18.95
2023-01-09T01:45:02.797Z,20.35
2023-01-09T01:45:35.958Z,18.10
2023-01-09T01:46:07.573Z,18.83
2023-01-09T01:46:39.165Z,18.77
2023-01-09T01:47:11.064Z,18.95
2023-01-09T01:47:48.596Z,16.70
2023-01-09T01:48:29.365Z,18.70
2023-01-09T01:49:09.781Z,18.20
2023-01-09T01:49:41.588Z,18.50
2023-01-09T01:50:19.836Z,17.73
2023-01-09T01:50:59.144Z,18.88
2023-01-09T01:51:34.883Z,18.05
2023-01-09T01:52:07.375Z,16.88
2023-01-09T01:52:39.333Z,19.00
2023-01-09T01:53:28.402Z,15.60
2023-01-09T01:54:05.721Z,18.90
2023-01-09T01:54:37.411Z,17.42
2023-01-09T01:55:10.267Z,18.88
2023-01-09T01:55:46.989Z,17.27
2023-01-09T01:56:24.711Z,19.02
2023-01-09T01:57:01.291Z,18.10
2023-01-09T01:57:33.431Z,18.20
2023-01-09T01:58:09.173Z,16.85
2023-01-09T01:58:46.817Z,16.35
2023-01-09T01:59:45.503Z,16.40
2023-01-09T02:00:21.700Z,17.38
2023-01-09T02:01:36.521Z,17.42
2023-01-09T02:02:10.141Z,17.63
2023-01-09T02:02:43.685Z,18.60
2023-01-09T02:03:18.513Z,16.45
2023-01-09T02:03:53.000Z,15.52
2023-01-09T02:04:24.738Z,17.75
2023-01-09T02:04:58.686Z,17.55
2023-01-09T02:05:30.725Z,16.27
2023-01-09T02:06:04.945Z,16.38
2023-01-09T02:06:37.967Z,19.42
2023-01-09T02:07:11.270Z,17.90
2023-01-09T02:07:42.878Z,19.38
2023-01-09T02:08:14.665Z,20.60
2023-01-09T02:08:47.035Z,18.85
2023-01-09T02:09:22.771Z,17.45
2023-01-09T02:09:54.566Z,18.50
2023-01-09T02:10:26.784Z,20.25
2023-01-09T02:10:58.936Z,16.75
2023-01-09T02:11:30.908Z,18.98
2023-01-09T02:12:02.901Z,20.98
2023-01-09T02:12:34.483Z,18.35
2023-01-09T02:13:08.348Z,17.63
2023-01-09T02:13:40.576Z,17.77
2023-01-09T02:14:12.554Z,18.63
2023-01-09T02:14:46.064Z,15.48
2023-01-09T02:15:19.347Z,18.10
2023-01-09T02:16:12.232Z,18.52
2023-01-09T02:16:59.172Z,16.33
2023-01-09T02:17:39.927Z,17.80
2023-01-09T02:18:31.043Z,19.00
2023-01-09T02:19:26.878Z,18.55
2023-01-09T02:20:29.224Z,16.52
2023-01-09T02:21:09.377Z,17.02
2023-01-09T02:21:40.961Z,18.77
2023-01-09T02:22:43.744Z,19.65
2023-01-09T02:23:26.037Z,18.77
2023-01-09T02:24:22.773Z,18.05
2023-01-09T02:25:32.622Z,17.52
2023-01-09T02:26:04.147Z,20.20
2023-01-09T02:26:53.043Z,18.83
2023-01-09T02:27:55.740Z,18.45
2023-01-09T02:28:39.138Z,18.00
2023-01-09T02:29:38.331Z,18.38
2023-01-09T02:30:29.283Z,17.80
2023-01-09T02:31:09.011Z,17.08
2023-01-09T02:31:45.655Z,16.83
2023-01-09T02:32:29.793Z,17.70
2023-01-09T02:33:10.322Z,18.05
2023-01-09T02:33:53.800Z,20.30
2023-01-09T02:34:40.249Z,17.45
2023-01-09T02:35:14.524Z,19.02
2023-01-09T02:36:04.580Z,19.33
2023-01-09T02:36:59.456Z,17.48
2023-01-09T02:37:49.813Z,17.02
2023-01-09T02:38:45.019Z,16.98
2023-01-09T02:39:42.475Z,17.52
2023-01-09T02:40:19.985Z,18.02
2023-01-09T02:41:08.548Z,18.40
2023-01-09T02:41:53.908Z,16.58
2023-01-09T02:42:27.089Z,16.42
2023-01-09T02:43:00.405Z,16.20
2023-01-09T02:43:32.417Z,19.02
2023-01-09T02:44:15.716Z,15.88
2023-01-09T02:44:47.593Z,16.15
2023-01-09T02:45:19.316Z,17.33
2023-01-09T02:45:50.986Z,17.35
2023-01-09T02:46:23.065Z,17.65
2023-01-09T02:47:08.094Z,15.02
2023-01-09T02:47:45.439Z,15.48
2023-01-09T02:48:17.013Z,16.85
2023-01-09T02:48:54.001Z,14.50
2023-01-09T02:49:25.730Z,15.40
2023-01-09T02:50:04.031Z,16.48
2023-01-09T02:51:03.703Z,16.52
2023-01-09T02:51:50.376Z,16.48
2023-01-09T02:52:47.902Z,15.10
2023-01-09T02:53:42.510Z,17.88
2023-01-09T02:54:32.723Z,16.85
2023-01-09T02:55:19.263Z,15.90
2023-01-09T02:56:05.978Z,14.98
2023-01-09T02:57:22.401Z,17.80
2023-01-09T02:58:07.692Z,16.17
2023-01-09T02:59:14.632Z,15.48
2023-01-09T02:59:55.295Z,16.05
2023-01-09T03:00:35.812Z,15.90
2023-01-09T03:01:25.577Z,15.00
2023-01-09T03:02:12.049Z,16.17
2023-01-09T03:03:07.010Z,16.33
2023-01-09T03:03:51.380Z,18.33
2023-01-09T03:04:46.190Z,17.20
2023-01-09T03:05:36.505Z,15.93
2023-01-09T03:06:10.721Z,17.80
2023-01-09T03:06:53.068Z,18.88
2023-01-09T03:07:27.683Z,17.02
2023-01-09T03:08:06.872Z,15.90
2023-01-09T03:08:42.495Z,16.67
2023-01-09T03:09:20.380Z,18.33
2023-01-09T03:09:57.778Z,16.42
2023-01-09T03:10:39.432Z,15.88
2023-01-09T03:11:12.006Z,18.55
2023-01-09T03:11:48.401Z,21.13
2023-01-09T03:12:24.758Z,19.27
2023-01-09T03:12:59.976Z,17.77
2023-01-09T03:13:53.609Z,17.92
2023-01-09T03:14:26.773Z,17.88
2023-01-09T03:15:01.411Z,15.43
2023-01-09T03:15:36.508Z,18.67
2023-01-09T03:16:11.448Z,16.65
2023-01-09T03:16:47.306Z,16.95
2023-01-09T03:17:34.891Z,17.80
2023-01-09T03:18:10.668Z,15.70
2023-01-09T03:18:43.365Z,16.88
2023-01-09T03:19:18.956Z,18.05
2023-01-09T03:19:52.602Z,16.15
2023-01-09T03:20:27.776Z,17.38
2023-01-09T03:20:59.881Z,20.65
2023-01-09T03:21:32.398Z,17.50
2023-01-09T03:22:04.660Z,17.25
2023-01-09T03:22:36.517Z,18.35
2023-01-09T03:23:08.677Z,17.15
2023-01-09T03:23:58.473Z,16.75
2023-01-09T03:24:30.154Z,17.63
2023-01-09T03:25:01.917Z,20.80
2023-01-09T03:25:34.505Z,17.48
2023-01-09T03:26:10.653Z,16.48
2023-01-09T03:26:43.728Z,16.80
2023-01-09T03:27:15.599Z,17.90
2023-01-09T03:27:47.400Z,16.88
2023-01-09T03:28:37.136Z,17.80
2023-01-09T03:29:09.749Z,18.80
2023-01-09T03:29:41.333Z,18.33
2023-01-09T03:30:13.124Z,15.85
2023-01-09T03:30:44.773Z,17.60
2023-01-09T03:31:17.251Z,16.38
2023-01-09T03:31:48.991Z,16.20
2023-01-09T03:32:20.683Z,16.55
2023-01-09T03:32:52.290Z,18.88
2023-01-09T03:33:23.935Z,18.05
2023-01-09T03:33:55.704Z,18.45
2023-01-09T03:34:27.287Z,18.13
2023-01-09T03:34:58.879Z,18.17
2023-01-09T03:35:30.440Z,16.67
2023-01-09T03:36:02.092Z,18.33
2023-01-09T03:36:33.974Z,18.85
2023-01-09T03:37:05.597Z,17.88
2023-01-09T03:37:37.196Z,16.58
2023-01-09T03:38:08.818Z,17.45
2023-01-09T03:38:40.722Z,17.35
2023-01-09T03:39:12.302Z,17.70
2023-01-09T03:39:43.888Z,20.83
2023-01-09T03:40:15.845Z,17.15
2023-01-09T03:40:47.486Z,20.10
2023-01-09T03:41:20.151Z,19.05
2023-01-09T03:41:51.741Z,17.30
2023-01-09T03:42:23.343Z,18.48
2023-01-09T03:42:54.989Z,17.42
2023-01-09T03:43:26.685Z,17.65
2023-01-09T03:43:58.297Z,17.90
2023-01-09T03:44:29.848Z,16.80
2023-01-09T03:45:01.404Z,18.50
2023-01-09T03:45:32.982Z,17.42
2023-01-09T03:46:05.198Z,17.92
2023-01-09T03:46:36.872Z,18.90
2023-01-09T03:47:08.479Z,18.05
2023-01-09T03:47:40.176Z,19.38
2023-01-09T03:48:11.741Z,17.17
2023-01-09T03:48:43.746Z,17.70
2023-01-09T03:49:15.299Z,18.70
2023-01-09T03:49:46.869Z,18.17
2023-01-09T03:50:18.477Z,17.40
2023-01-09T03:50:51.767Z,17.92
2023-01-09T03:51:23.361Z,16.55
2023-01-09T03:51:54.940Z,17.95
2023-01-09T03:52:26.531Z,18.40
2023-01-09T03:52:58.129Z,16.60
2023-01-09T03:53:29.815Z,17.52
2023-01-09T03:54:01.407Z,19.15
2023-01-09T03:54:32.997Z,19.73
2023-01-09T03:55:05.042Z,19.80
2023-01-09T03:55:36.621Z,18.52
2023-01-09T03:56:08.192Z,16.98
2023-01-09T03:56:39.774Z,20.00
2023-01-09T03:57:11.414Z,19.80
2023-01-09T03:57:43.205Z,17.48
2023-01-09T03:58:15.246Z,18.38
2023-01-09T03:58:46.920Z,18.70
2023-01-09T03:59:18.739Z,19.45
2023-01-09T03:59:50.469Z,18.00
2023-01-09T04:00:22.355Z,20.05
2023-01-09T04:01:02.931Z,18.58
2023-01-09T04:01:35.361Z,21.92
2023-01-09T04:02:07.295Z,19.38
2023-01-09T04:02:39.420Z,28.63
2023-01-09T04:03:11.142Z,17.98
2023-01-09T04:03:42.808Z,19.83
2023-01-09T04:04:14.476Z,19.83
2023-01-09T04:04:46.131Z,18.63
2023-01-09T04:05:17.827Z,18.25
2023-01-09T04:05:50.143Z,19.23
2023-01-09T04:06:21.759Z,18.60
2023-01-09T04:06:53.381Z,18.77
2023-01-09T04:07:24.945Z,19.40
2023-01-09T04:07:56.532Z,19.80
2023-01-09T04:08:28.178Z,18.67
2023-01-09T04:08:59.822Z,18.85
2023-01-09T04:09:31.421Z,19.27
2023-01-09T04:10:03.607Z,19.55
2023-01-09T04:10:35.388Z,18.92
2023-01-09T04:11:07.011Z,18.42
2023-01-09T04:11:38.640Z,20.10
2023-01-09T04:12:10.275Z,20.15
2023-01-09T04:12:41.826Z,18.95
2023-01-09T04:13:13.995Z,18.98
2023-01-09T04:13:45.577Z,18.58
2023-01-09T04:14:17.139Z,19.13
2023-01-09T04:14:48.706Z,19.92
2023-01-09T04:15:20.346Z,16.27
2023-01-09T04:15:51.981Z,17.52
2023-01-09T04:16:23.656Z,19.98
2023-01-09T04:16:55.243Z,18.05
2023-01-09T04:17:26.828Z,20.88
2023-01-09T04:17:58.434Z,17.95
2023-01-09T04:18:30.037Z,15.75
2023-01-09T04:19:01.803Z,20.63
2023-01-09T04:19:33.400Z,18.88
2023-01-09T04:20:05.479Z,17.48
2023-01-09T04:20:37.205Z,19.30
2023-01-09T04:21:08.811Z,18.83
2023-01-09T04:21:40.403Z,19.67
2023-01-09T04:22:11.961Z,18.42
2023-01-09T04:22:43.537Z,20.05
2023-01-09T04:23:15.288Z,20.02
2023-01-09T04:23:46.946Z,18.38
2023-01-09T04:24:18.653Z,18.55
2023-01-09T04:24:50.257Z,19.88
2023-01-09T04:25:22.736Z,19.42
2023-01-09T04:25:54.294Z,19.90
2023-01-09T04:26:25.945Z,18.13
2023-01-09T04:26:57.504Z,19.92
2023-01-09T04:27:29.060Z,21.13
2023-01-09T04:28:00.750Z,19.48
2023-01-09T04:28:32.551Z,18.38
2023-01-09T04:29:04.195Z,18.88
2023-01-09T04:29:35.767Z,19.52
2023-01-09T04:30:08.124Z,19.02
2023-01-09T04:30:39.679Z,19.05
2023-01-09T04:31:11.344Z,20.85
2023-01-09T04:31:43.092Z,17.80
2023-01-09T04:32:14.810Z,18.48
2023-01-09T04:32:46.377Z,19.73
2023-01-09T04:33:17.991Z,19.85
2023-01-09T04:33:49.558Z,19.27
2023-01-09T04:34:25.599Z,20.38
2023-01-09T04:34:57.396Z,19.80
2023-01-09T04:35:28.957Z,18.33
2023-01-09T04:36:00.692Z,19.92
2023-01-09T04:36:34.723Z,21.45
2023-01-09T04:37:06.406Z,19.17
2023-01-09T04:37:38.205Z,23.92
2023-01-09T04:38:09.820Z,20.73
2023-01-09T04:38:41.399Z,23.08
2023-01-09T04:39:12.983Z,19.60
2023-01-09T04:39:44.618Z,20.13
2023-01-09T04:40:16.633Z,21.27
2023-01-09T04:40:49.152Z,19.88
2023-01-09T04:41:38.995Z,21.65
2023-01-09T04:42:11.692Z,22.23
2023-01-09T04:42:43.285Z,19.23
2023-01-09T04:43:15.121Z,19.17
2023-01-09T04:43:46.681Z,20.38
2023-01-09T04:44:23.200Z,19.58
2023-01-09T04:44:54.856Z,20.00
2023-01-09T04:45:26.490Z,18.85
2023-01-09T04:45:58.200Z,19.33
2023-01-09T04:46:29.842Z,19.50
2023-01-09T04:47:01.486Z,19.70
2023-01-09T04:47:33.163Z,20.85
2023-01-09T04:48:05.076Z,20.80
2023-01-09T04:48:36.622Z,20.23
2023-01-09T04:49:08.213Z,23.15
2023-01-09T04:49:40.171Z,21.15
2023-01-09T04:50:13.089Z,21.63
2023-01-09T04:50:44.701Z,21.13
2023-01-09T04:51:16.257Z,20.02
2023-01-09T04:51:48.164Z,20.55
2023-01-09T04:52:20.091Z,22.33
2023-01-09T04:52:51.645Z,20.40
2023-01-09T04:53:23.275Z,20.67
2023-01-09T04:53:54.941Z,23.10
2023-01-09T04:54:27.743Z,19.85
2023-01-09T04:54:59.525Z,20.45
2023-01-09T04:55:31.248Z,21.33
2023-01-09T04:56:02.831Z,18.98
2023-01-09T04:56:34.623Z,22.15
2023-01-09T04:57:06.826Z,21.95
2023-01-09T04:57:38.466Z,19.30
2023-01-09T04:58:10.113Z,19.50
2023-01-09T04:58:41.745Z,20.25
2023-01-09T04:59:13.683Z,21.67
2023-01-09T04:59:45.282Z,21.25
2023-01-09T05:00:16.925Z,20.85
2023-01-09T05:00:48.572Z,20.08
2023-01-09T05:01:20.386Z,21.08
2023-01-09T05:01:54.757Z,22.20
2023-01-09T05:02:26.488Z,20.30
2023-01-09T05:02:58.226Z,20.75
2023-01-09T05:03:29.806Z,20.20
2023-01-09T05:04:01.985Z,23.23
2023-01-09T05:04:33.704Z,21.70
2023-01-09T05:05:06.575Z,21.55
2023-01-09T05:05:38.171Z,20.90
2023-01-09T05:06:09.834Z,22.33
2023-01-09T05:06:41.426Z,21.77
2023-01-09T05:07:13.019Z,22.52
2023-01-09T05:07:44.626Z,22.27
2023-01-09T05:08:16.249Z,22.08
2023-01-09T05:08:47.913Z,23.67
2023-01-09T05:09:19.641Z,22.65
2023-01-09T05:09:51.224Z,21.33
2023-01-09T05:10:22.837Z,21.52
2023-01-09T05:10:54.409Z,24.40
2023-01-09T05:11:26.341Z,21.65
2023-01-09T05:11:57.949Z,22.90
2023-01-09T05:12:29.575Z,25.05
2023-01-09T05:13:01.142Z,27.52
2023-01-09T05:13:32.761Z,32.33
2023-01-09T05:14:04.314Z,32.63
2023-01-09T05:14:36.008Z,26.35
2023-01-09T05:15:08.466Z,25.02
2023-01-09T05:15:40.128Z,24.45
2023-01-09T05:16:11.732Z,23.30
2023-01-09T05:16:43.396Z,21.02
2023-01-09T05:17:15.046Z,24.27
2023-01-09T05:17:46.603Z,22.80
2023-01-09T05:18:18.183Z,23.45
2023-01-09T05:18:49.836Z,22.85
2023-01-09T05:19:21.614Z,23.83
2023-01-09T05:19:53.249Z,23.20
2023-01-09T05:20:24.845Z,24.10
2023-01-09T05:20:56.489Z,21.88
2023-01-09T05:21:28.331Z,24.40
2023-01-09T05:21:59.973Z,22.27
2023-01-09T05:22:31.584Z,26.20
2023-01-09T05:23:03.209Z,25.52
2023-01-09T05:23:34.763Z,23.67
2023-01-09T05:24:06.615Z,23.10
2023-01-09T05:24:38.184Z,24.60
2023-01-09T05:25:10.019Z,23.85
2023-01-09T05:25:41.575Z,25.35
2023-01-09T05:26:13.536Z,26.17
2023-01-09T05:26:45.100Z,25.77
2023-01-09T05:27:16.718Z,27.27
2023-01-09T05:27:48.318Z,26.40
2023-01-09T05:28:19.967Z,30.92
2023-01-09T05:28:52.933Z,31.42
2023-01-09T05:29:24.805Z,34.47
2023-01-09T05:29:56.458Z,30.25
2023-01-09T05:30:28.835Z,28.13
2023-01-09T05:31:00.415Z,24.02
2023-01-09T05:31:32.084Z,25.90
2023-01-09T05:32:03.997Z,25.20
2023-01-09T05:32:35.611Z,24.05
2023-01-09T05:33:07.280Z,25.80
2023-01-09T05:33:38.865Z,25.23
2023-01-09T05:34:10.470Z,24.10
2023-01-09T05:34:42.145Z,27.88
2023-01-09T05:35:13.840Z,23.80
2023-01-09T05:35:45.448Z,26.20
2023-01-09T05:36:17.311Z,25.02
2023-01-09T05:36:49.057Z,26.13
2023-01-09T05:37:20.635Z,25.85
2023-01-09T05:37:52.343Z,24.90
2023-01-09T05:38:23.940Z,26.27
2023-01-09T05:38:57.866Z,24.40
2023-01-09T05:39:29.582Z,25.48
2023-01-09T05:40:01.148Z,25.10
2023-01-09T05:40:40.019Z,23.13
2023-01-09T05:41:12.180Z,23.35
2023-01-09T05:41:43.729Z,23.02
2023-01-09T05:42:15.307Z,25.02
2023-01-09T05:42:46.903Z,24.10
2023-01-09T05:43:18.515Z,28.05
2023-01-09T05:43:50.251Z,27.08
2023-01-09T05:44:21.825Z,24.02
2023-01-09T05:44:53.436Z,42.60
2023-01-09T05:45:27.158Z,36.00
2023-01-09T05:45:58.841Z,30.05
2023-01-09T05:46:31.305Z,25.10
2023-01-09T05:47:03.079Z,28.55
2023-01-09T05:47:34.713Z,27.88
2023-01-09T05:48:06.567Z,28.83
2023-01-09T05:48:38.796Z,28.23
2023-01-09T05:49:10.468Z,28.02
2023-01-09T05:49:42.108Z,30.23
2023-01-09T05:50:14.439Z,27.25
2023-01-09T05:50:46.026Z,28.02
2023-01-09T05:51:17.849Z,28.60
2023-01-09T05:51:49.421Z,28.10
2023-01-09T05:52:21.003Z,30.77
2023-01-09T05:52:52.552Z,27.92
2023-01-09T05:53:24.160Z,30.70
2023-01-09T05:53:55.784Z,31.33
2023-01-09T05:54:27.356Z,26.83
2023-01-09T05:54:58.929Z,26.05
2023-01-09T05:55:30.532Z,38.58
2023-01-09T05:56:02.184Z,44.17
2023-01-09T05:56:33.841Z,26.60
2023-01-09T05:57:05.436Z,31.48
2023-01-09T05:57:37.030Z,25.88
2023-01-09T05:58:08.659Z,24.30
2023-01-09T05:58:40.329Z,25.92
2023-01-09T05:59:11.944Z,28.13
2023-01-09T05:59:43.731Z,28.30
2023-01-09T06:00:15.822Z,24.58
2023-01-09T06:00:48.559Z,26.08
2023-01-09T06:01:22.221Z,25.80
2023-01-09T06:01:55.267Z,25.60
2023-01-09T06:02:26.992Z,25.73
2023-01-09T06:02:59.252Z,24.55
2023-01-09T06:03:30.857Z,25.95
2023-01-09T06:04:02.445Z,25.75
2023-01-09T06:04:34.139Z,21.38
2023-01-09T06:05:06.237Z,26.30
2023-01-09T06:05:37.876Z,25.30
2023-01-09T06:06:09.464Z,25.30
2023-01-09T06:06:41.262Z,23.05
2023-01-09T06:07:16.612Z,25.73
2023-01-09T06:07:51.169Z,25.77
2023-01-09T06:08:22.734Z,24.17
2023-01-09T06:08:54.471Z,24.23
2023-01-09T06:09:26.092Z,24.00
2023-01-09T06:09:57.720Z,23.85
2023-01-09T06:10:29.285Z,23.58
2023-01-09T06:11:00.849Z,23.77
2023-01-09T06:11:34.397Z,23.20
2023-01-09T06:12:06.565Z,22.40
2023-01-09T06:12:38.585Z,24.73
2023-01-09T06:13:10.254Z,23.60
2023-01-09T06:13:41.825Z,25.98
2023-01-09T06:14:13.529Z,22.92
2023-01-09T06:14:45.137Z,26.67
2023-01-09T06:15:17.454Z,22.90
2023-01-09T06:15:49.366Z,24.88
2023-01-09T06:16:21.033Z,25.38
2023-01-09T06:16:52.782Z,23.88
2023-01-09T06:17:24.392Z,24.88
2023-01-09T06:17:56.045Z,25.17
2023-01-09T06:18:27.659Z,24.25
2023-01-09T06:18:59.267Z,23.92
2023-01-09T06:19:30.857Z,24.55
2023-01-09T06:20:02.543Z,22.60
2023-01-09T06:20:34.903Z,21.88
2023-01-09T06:21:06.528Z,23.92
2023-01-09T06:21:38.145Z,24.33
2023-01-09T06:22:09.893Z,24.00
2023-01-09T06:22:41.567Z,22.85
2023-01-09T06:23:13.910Z,23.50
2023-01-09T06:23:45.662Z,24.08
2023-01-09T06:24:17.280Z,26.08
2023-01-09T06:24:48.840Z,21.95
2023-01-09T06:25:20.449Z,23.83
2023-01-09T06:25:52.046Z,24.10
2023-01-09T06:26:26.961Z,22.63
2023-01-09T06:26:58.549Z,26.85
2023-01-09T06:27:30.332Z,24.52
2023-01-09T06:28:01.921Z,22.63
2023-01-09T06:28:33.692Z,24.45
2023-01-09T06:29:05.440Z,23.52
2023-01-09T06:29:37.001Z,24.38
2023-01-09T06:30:09.284Z,23.58
2023-01-09T06:30:40.880Z,24.17
2023-01-09T06:31:13.363Z,24.48
2023-01-09T06:31:45.133Z,24.77
2023-01-09T06:32:16.773Z,25.10
2023-01-09T06:32:50.228Z,26.33
2023-01-09T06:33:21.828Z,26.05
2023-01-09T06:33:54.157Z,24.60
2023-01-09T06:34:25.762Z,25.52
2023-01-09T06:34:57.393Z,26.17
2023-01-09T06:35:29.231Z,24.55
2023-01-09T06:36:00.893Z,23.15
2023-01-09T06:36:40.682Z,26.83
2023-01-09T06:37:19.839Z,26.08
2023-01-09T06:37:51.523Z,24.48
2023-01-09T06:38:23.244Z,21.38
2023-01-09T06:38:54.822Z,24.70
2023-01-09T06:39:26.408Z,23.08
2023-01-09T06:39:58.022Z,23.80
2023-01-09T06:40:29.659Z,22.42
2023-01-09T06:41:01.221Z,21.95
2023-01-09T06:41:32.840Z,23.02
2023-01-09T06:42:04.536Z,24.33
2023-01-09T06:42:36.118Z,23.25
2023-01-09T06:43:07.762Z,24.65
2023-01-09T06:43:39.533Z,24.58
2023-01-09T06:44:11.166Z,25.58
2023-01-09T06:44:42.857Z,24.02
2023-01-09T06:45:14.845Z,24.13
2023-01-09T06:45:46.490Z,26.00
2023-01-09T06:46:18.145Z,25.35
2023-01-09T06:46:49.774Z,24.98
2023-01-09T06:47:21.374Z,23.85
2023-01-09T06:47:53.108Z,24.23
2023-01-09T06:48:25.173Z,21.10
2023-01-09T06:48:56.763Z,24.63
2023-01-09T06:49:28.420Z,22.30
2023-01-09T06:50:00.037Z,24.55
2023-01-09T06:50:31.717Z,22.58
2023-01-09T06:51:03.732Z,23.92
2023-01-09T06:51:35.322Z,25.92
2023-01-09T06:52:07.818Z,22.20
2023-01-09T06:52:40.195Z,22.85
2023-01-09T06:53:11.845Z,22.83
2023-01-09T06:53:43.432Z,22.67
2023-01-09T06:54:15.069Z,22.55
2023-01-09T06:54:46.676Z,24.20
2023-01-09T06:55:18.318Z,23.15
2023-01-09T06:55:50.127Z,24.08
2023-01-09T06:56:21.780Z,23.40
2023-01-09T06:56:53.342Z,26.15
2023-01-09T06:57:25.219Z,27.30
2023-01-09T06:57:56.943Z,24.10
2023-01-09T06:58:28.931Z,25.30
2023-01-09T06:59:01.315Z,23.55
2023-01-09T06:59:32.965Z,25.92
2023-01-09T07:00:05.360Z,26.35
2023-01-09T07:00:37.366Z,28.63
2023-01-09T07:01:09.351Z,25.75
2023-01-09T07:01:41.222Z,26.77
2023-01-09T07:02:23.358Z,27.15
2023-01-09T07:02:55.108Z,27.23
2023-01-09T07:03:26.886Z,27.50
2023-01-09T07:03:58.712Z,28.50
2023-01-09T07:04:30.336Z,30.58
2023-01-09T07:05:02.683Z,28.83
2023-01-09T07:05:39.756Z,34.20
2023-01-09T07:06:11.402Z,31.63
2023-01-09T07:06:43.046Z,33.53
2023-01-09T07:07:15.114Z,33.70
2023-01-09T07:07:46.773Z,32.33
2023-01-09T07:08:18.406Z,32.08
2023-01-09T07:08:49.996Z,29.63
2023-01-09T07:09:21.610Z,31.83
2023-01-09T07:09:53.192Z,27.23
2023-01-09T07:10:24.901Z,30.10
2023-01-09T07:10:56.497Z,28.65
2023-01-09T07:11:28.150Z,30.55
2023-01-09T07:11:59.759Z,27.88
2023-01-09T07:12:31.440Z,26.58
2023-01-09T07:13:03.584Z,24.92
2023-01-09T07:13:35.288Z,26.95
2023-01-09T07:14:06.947Z,27.42
2023-01-09T07:14:38.531Z,24.63
2023-01-09T07:15:10.641Z,28.77
2023-01-09T07:15:42.293Z,27.75
2023-01-09T07:16:13.970Z,28.40
2023-01-09T07:16:45.684Z,28.10
2023-01-09T07:17:17.311Z,30.48
2023-01-09T07:17:56.440Z,25.98